松山空港の過去48時間の天気

松山空港 (Matsuyama)

現在時刻: 7/23 03:33 JST (7/22 18:33 UTC) 以下の時間は現地時間です。

過去48時間のMETAR気象情報
時間 風向 風速(m/s) 視程 気温(℃) 湿度(%) 気圧(hPa) 天気現象
22 21:00 北北東 2 10km以上 28 89 1010
22 20:00 北西 1 10km以上 27 89 1010
22 19:00 2 10km以上 28 79 1010
22 18:00 北西 2 10km以上 29 74 1010
22 17:00 西北西 4 10km以上 31 66 1009
22 16:00 2 10km以上 30 66 1009
22 15:00 不定 2 10km以上 30 75 1010
22 14:00 南西 3 10km以上 30 79 1010
22 13:00 西 2 10km以上 29 79 1010
22 12:00 3 10km以上 31 66 1010
22 11:00 5 10km以上 31 66 1011
22 10:00 5 10km以上 30 70 1011
22 09:00 5 10km以上 28 79 1011
22 08:00 3 10km以上 29 74 1011
22 07:00 3 10km以上 29 74 1011
22 06:10 3 10km以上 26 84 1011
21 21:00 2 10km以上 27 89 1011
21 20:00 南南西 2 10km以上 27 89 1011
21 19:00 西南西 2 10km以上 28 89 1010
21 18:00 南西 2 10km以上 28 84 1010
21 17:00 不定 1 10km以上 29 79 1010
21 16:43 南南西 2 10km以上 27 89 1010 弱いしゅう雨
21 16:26 4 10km以上 27 89 1010 強いしゅう雨
21 16:00 西南西 5 10km以上 27 89 1010 弱いしゅう雨
21 15:00 南南西 5 10km以上 29 79 1010 周辺でしゅう雨
21 14:00 4 10km以上 33 59 1009
21 13:00 6 10km以上 32 67 1010
21 12:00 7 10km以上 32 63 1010
21 11:18 6 10km以上 32 67 1011
21 11:00 6 10km以上 30 75 1011
21 10:00 4 10km以上 30 70 1011
21 09:00 北北西 3 10km以上 27 84 1011
21 08:00 3 10km以上 28 79 1011
21 07:00 北北西 2 10km以上 28 74 1011
21 06:10 2 10km以上 26 84 1010
RJOM 221200Z 02003KT 9999 FEW030 28/26 Q1010
RJOM 221100Z 32001KT 9999 FEW025 SCT035 27/25 Q1010
RJOM 221000Z 01004KT 9999 FEW025 SCT035 28/24 Q1010
RJOM 220900Z 32004KT 9999 FEW025 FEW030TCU SCT/// 29/24 Q1010
RJOM 220800Z 30007KT 9999 FEW025 SCT050 BKN/// 31/24 Q1009
RJOM 220700Z 35003KT 9999 FEW025 SCT060 BKN/// 30/23 Q1009
RJOM 220600Z VRB03KT 9999 FEW025 SCT060 BKN/// 30/25 Q1010
RJOM 220500Z 23005KT 190V260 9999 FEW025 SCT060 BKN/// 30/26 Q1010
RJOM 220400Z 28003KT 9999 FEW025 SCT050 BKN/// 29/25 Q1010
RJOM 220300Z 36006KT 9999 FEW025 BKN/// 31/24 Q1010
RJOM 220200Z 36010KT 9999 FEW025 BKN/// 31/24 Q1011
RJOM 220100Z 36009KT 9999 FEW025 BKN/// 30/24 Q1011
RJOM 220000Z 35010KT 9999 FEW025 BKN/// 28/24 Q1011
RJOM 212300Z 35006KT 9999 FEW025 BKN/// 29/24 Q1011
RJOM 212200Z 36005KT 9999 FEW025 SCT180 BKN/// 29/24 Q1011
RJOM 212110Z 36005KT 9999 FEW025 SCT180 BKN/// 26/23 Q1011 RMK 1CU025 3AC180 A2986
RJOM 211200Z 36004KT 9999 FEW030 SCT/// 27/25 Q1011
RJOM 211100Z 21003KT 9999 FEW030 SCT/// 27/25 Q1011
RJOM 211000Z 25003KT 9999 FEW030 SCT/// 28/26 Q1010
RJOM 210900Z 23004KT 9999 FEW010 SCT/// 28/25 Q1010
RJOM 210800Z VRB02KT 9999 FEW010 SCT040 29/25 Q1010
RJOM 210743Z 21003KT 170V270 9999 -SHRA FEW010 SCT040 BKN080 27/25 Q1010 RMK 1ST010 3CU040 5AC080 A2983
RJOM 210726Z 18007KT 150V210 9999 +SHRA FEW020 FEW030TCU BKN040 27/25 Q1010 RMK 1CU020 1TCU030 5CU040 A2984 RI++ TCU OHD MOV NW
RJOM 210700Z 24010KT 9999 -SHRA FEW020 FEW030TCU SCT040 BKN090 27/25 Q1010
RJOM 210600Z 21009KT 9999 VCSH FEW020 FEW030TCU SCT040 29/25 Q1010
RJOM 210500Z 35008KT 9999 FEW020 SCT050 33/24 Q1009
RJOM 210400Z 35011KT 9999 FEW020 SCT050 32/25 Q1010
RJOM 210300Z 36014KT 9999 FEW020 SCT050 BKN070 32/24 Q1010
RJOM 210218Z 36011KT 9999 FEW020 SCT040 32/25 Q1011 RMK 1CU020 3CU040 A2985
RJOM 210200Z 36011KT 9999 FEW020 30/25 Q1011
RJOM 210100Z 35007KT 9999 FEW020 SCT/// 30/24 Q1011
RJOM 210000Z 34005KT 9999 FEW020 SCT/// 27/24 Q1011
RJOM 202300Z 35006KT 9999 FEW025 SCT/// 28/24 Q1011
RJOM 202200Z 33003KT 9999 FEW025 SCT050 28/23 Q1011
RJOM 202110Z 36004KT 9999 FEW025 SCT/// 26/23 Q1010 RMK 1CU025 A2985